Time;durP1;ratioP1;P1;durP2;ratioP2;P2;SDS_P1;SDS_P2;PMS_P1;PMS_P2;Temp;Humidity;BMP_temperature;BMP_pressure;BME280_temperature;BME280_humidity;BME280_pressure;Samples;Min_cycle;Max_cycle;Signal;HPM_P1;HPM_P2
2020/12/12 00:01:36;;;;;;;24.17;15.37;;;5.80;92.50;;;;;;5052452;28;20112;-74
2020/12/12 00:04:02;;;;;;;23.63;14.47;;;5.70;92.50;;;;;;5052414;28;20067;-75
2020/12/12 00:06:27;;;;;;;22.00;14.57;;;5.80;92.50;;;;;;5053649;28;20027;-75
2020/12/12 00:08:53;;;;;;;23.37;13.83;;;5.80;92.50;;;;;;5019412;28;20108;-74
2020/12/12 00:11:21;;;;;;;22.50;14.33;;;5.80;92.50;;;;;;5052425;28;20040;-74
2020/12/12 00:13:46;;;;;;;24.20;15.40;;;5.80;92.50;;;;;;5053683;28;20021;-76
2020/12/12 00:16:15;;;;;;;22.73;14.37;;;5.80;92.60;;;;;;5053574;28;20079;-75
2020/12/12 00:18:41;;;;;;;23.60;14.27;;;5.70;92.50;;;;;;5053340;28;20056;-75
2020/12/12 00:21:06;;;;;;;24.50;15.70;;;5.80;92.50;;;;;;5052148;28;20056;-83
2020/12/12 00:23:33;;;;;;;24.00;15.07;;;5.80;92.50;;;;;;5019461;28;20106;-83
2020/12/12 00:25:58;;;;;;;24.10;15.53;;;5.80;92.50;;;;;;5035815;28;20025;-83
2020/12/12 00:28:24;;;;;;;23.37;14.80;;;5.80;92.50;;;;;;5053600;28;20036;-82
2020/12/12 00:30:50;;;;;;;25.53;15.27;;;5.80;92.50;;;;;;5052160;28;20021;-83
2020/12/12 00:33:16;;;;;;;26.47;16.03;;;5.80;92.60;;;;;;5035568;28;20531;-82
2020/12/12 00:35:41;;;;;;;26.10;16.17;;;5.80;92.60;;;;;;5052446;28;20443;-82
2020/12/12 00:38:07;;;;;;;27.23;17.23;;;5.80;92.50;;;;;;5053545;28;20028;-83
2020/12/12 00:40:32;;;;;;;26.93;17.07;;;5.80;92.50;;;;;;5053468;28;20021;-83
2020/12/12 00:42:58;;;;;;;27.10;17.27;;;5.90;92.50;;;;;;5053400;28;20550;-83
2020/12/12 00:45:24;;;;;;;28.40;17.97;;;5.80;92.50;;;;;;5035510;28;20507;-83
2020/12/12 00:47:49;;;;;;;28.67;17.57;;;5.80;92.50;;;;;;5053291;28;20029;-82
2020/12/12 00:50:15;;;;;;;25.80;16.93;;;5.80;92.50;;;;;;5052168;28;20362;-82
2020/12/12 00:52:40;;;;;;;30.27;18.17;;;5.80;92.60;;;;;;5035299;28;20132;-83
2020/12/12 00:55:06;;;;;;;30.53;18.67;;;5.80;92.60;;;;;;5052018;28;20056;-82
2020/12/12 00:57:32;;;;;;;31.97;19.97;;;6.00;92.60;;;;;;5051979;28;20040;-83
2020/12/12 00:59:57;;;;;;;30.67;18.53;;;5.80;92.60;;;;;;5053157;28;20032;-83
2020/12/12 01:02:23;;;;;;;32.33;19.53;;;5.90;92.60;;;;;;5022903;28;20483;-75
2020/12/12 01:04:48;;;;;;;33.23;20.27;;;5.80;92.60;;;;;;5055901;28;20029;-74
2020/12/12 01:07:14;;;;;;;33.80;20.70;;;5.90;92.60;;;;;;5039391;28;20041;-75
2020/12/12 01:09:40;;;;;;;34.67;21.10;;;5.90;92.60;;;;;;5057379;28;20473;-75
2020/12/12 01:12:05;;;;;;;33.43;21.17;;;5.80;92.60;;;;;;5056851;28;20074;-74
2020/12/12 01:14:31;;;;;;;33.80;20.33;;;5.90;92.60;;;;;;5022724;28;20480;-74
2020/12/12 01:17:00;;;;;;;34.33;20.93;;;5.90;92.50;;;;;;5057251;28;20021;-75
2020/12/12 01:19:25;;;;;;;33.13;20.97;;;6.00;92.60;;;;;;5056976;28;20086;-74
2020/12/12 01:21:54;;;;;;;32.53;20.90;;;5.90;92.60;;;;;;5022559;28;20431;-75
2020/12/12 01:24:20;;;;;;;32.23;21.00;;;5.90;92.50;;;;;;5055612;28;20120;-74
2020/12/12 01:26:47;;;;;;;34.53;21.43;;;6.00;92.60;;;;;;5055785;28;20128;-75
2020/12/12 01:29:12;;;;;;;34.87;21.03;;;5.90;92.50;;;;;;5056718;28;20032;-75
2020/12/12 01:31:38;;;;;;;37.13;22.50;;;5.90;92.50;;;;;;5055519;28;20037;-75
2020/12/12 01:34:04;;;;;;;34.43;21.67;;;5.90;92.60;;;;;;5056624;28;20091;-74
2020/12/12 01:36:29;;;;;;;34.80;20.53;;;6.00;92.60;;;;;;5056897;28;20109;-84
2020/12/12 01:38:55;;;;;;;35.40;21.80;;;5.90;92.90;;;;;;5056620;28;20033;-83
2020/12/12 01:41:22;;;;;;;36.07;21.23;;;5.90;92.60;;;;;;5055389;28;20025;-83
2020/12/12 01:43:51;;;;;;;31.77;20.57;;;5.90;92.60;;;;;;5055151;28;20483;-84
2020/12/12 01:46:23;;;;;;;33.57;21.67;;;5.90;92.60;;;;;;5055748;28;20078;-83
2020/12/12 01:48:52;;;;;;;34.80;21.70;;;5.90;92.70;;;;;;5055179;28;20051;-83
2020/12/12 01:51:19;;;;;;;31.30;20.40;;;6.00;92.70;;;;;;5056259;28;20465;-82
2020/12/12 01:53:45;;;;;;;30.40;18.73;;;6.00;92.70;;;;;;5055182;28;20021;-83
2020/12/12 01:56:10;;;;;;;32.47;20.03;;;6.00;92.70;;;;;;5056081;28;20489;-82
2020/12/12 01:58:36;;;;;;;34.93;20.97;;;6.00;92.70;;;;;;5055164;28;20036;-83
2020/12/12 02:01:02;;;;;;;34.00;20.07;;;6.00;92.70;;;;;;5054994;28;20056;-83
2020/12/12 02:03:32;;;;;;;33.77;19.67;;;6.00;92.70;;;;;;5056260;28;20056;-83
2020/12/12 02:06:00;;;;;;;32.63;19.57;;;6.00;92.70;;;;;;5056133;28;20487;-83
2020/12/12 02:08:26;;;;;;;32.27;20.87;;;6.00;92.70;;;;;;5056175;28;20165;-83
2020/12/12 02:10:51;;;;;;;31.27;19.27;;;6.00;92.70;;;;;;5038180;28;20033;-82
2020/12/12 02:13:18;;;;;;;34.83;20.90;;;6.00;92.70;;;;;;5054924;28;20078;-83
2020/12/12 02:15:45;;;;;;;33.57;21.10;;;6.00;92.70;;;;;;5055972;28;20025;-83
2020/12/12 02:18:18;;;;;;;36.20;20.97;;;6.00;92.80;;;;;;5038065;28;20522;-83
2020/12/12 02:20:54;;;;;;;32.33;20.20;;;6.10;92.80;;;;;;5055989;28;20021;-83
2020/12/12 02:23:21;;;;;;;35.17;21.20;;;6.10;92.80;;;;;;5054403;28;20107;-83
2020/12/12 02:25:46;;;;;;;29.87;18.50;;;6.10;92.80;;;;;;5054611;28;20036;-83
2020/12/12 02:28:15;;;;;;;32.93;20.10;;;6.00;92.80;;;;;;5037948;28;20029;-83
2020/12/12 02:30:41;;;;;;;31.40;20.50;;;6.00;92.80;;;;;;5054424;28;20031;-83
2020/12/12 02:33:07;;;;;;;31.77;20.70;;;6.00;92.80;;;;;;5054177;28;20037;-83
2020/12/12 02:35:32;;;;;;;32.27;19.77;;;6.10;92.80;;;;;;5055534;28;20025;-84
2020/12/12 02:37:58;;;;;;;31.30;20.03;;;6.10;92.80;;;;;;5037631;28;20032;-83
2020/12/12 02:40:23;;;;;;;32.13;20.03;;;6.00;92.80;;;;;;5037715;28;20036;-83
2020/12/12 02:42:49;;;;;;;32.90;20.30;;;6.10;92.80;;;;;;5054370;28;20029;-83
2020/12/12 02:45:16;;;;;;;29.67;17.70;;;6.10;92.80;;;;;;5054119;28;20029;-83
2020/12/12 02:47:44;;;;;;;31.10;18.83;;;6.10;93.10;;;;;;5037867;28;20032;-83
2020/12/12 02:50:12;;;;;;;31.90;19.40;;;6.10;92.80;;;;;;5037991;28;20534;-83
2020/12/12 02:52:39;;;;;;;28.23;18.43;;;6.10;92.80;;;;;;5054084;28;20025;-83
2020/12/12 02:55:06;;;;;;;28.43;17.63;;;6.10;92.80;;;;;;5053819;28;20567;-84
2020/12/12 02:57:33;;;;;;;31.63;19.97;;;6.10;92.80;;;;;;5055204;28;20039;-84
2020/12/12 02:59:59;;;;;;;32.57;19.90;;;6.10;92.80;;;;;;5055140;28;20469;-84
2020/12/12 03:02:24;;;;;;;30.67;19.70;;;6.20;92.80;;;;;;5053877;28;20086;-84
2020/12/12 03:04:50;;;;;;;31.90;19.83;;;6.10;92.70;;;;;;5055026;28;20064;-84
2020/12/12 03:07:15;;;;;;;31.70;19.80;;;6.20;92.70;;;;;;5037024;28;20111;-84
2020/12/12 03:09:41;;;;;;;27.47;18.03;;;6.20;92.70;;;;;;5037091;28;20476;-85
2020/12/12 03:12:07;;;;;;;33.17;20.27;;;6.10;92.70;;;;;;5036909;28;20106;-76
2020/12/12 03:14:32;;;;;;;31.27;19.30;;;6.10;92.70;;;;;;5055165;28;20021;-75
2020/12/12 03:16:58;;;;;;;30.37;19.63;;;6.20;92.70;;;;;;5054778;28;20025;-75
2020/12/12 03:19:24;;;;;;;29.97;19.37;;;6.20;92.70;;;;;;5054709;28;20035;-74
2020/12/12 03:21:49;;;;;;;29.30;18.70;;;6.20;92.80;;;;;;5054595;28;20029;-74
2020/12/12 03:24:15;;;;;;;31.37;19.13;;;6.20;92.70;;;;;;5054464;28;20025;-75
2020/12/12 03:26:41;;;;;;;32.60;19.10;;;6.10;92.90;;;;;;5054815;28;20405;-75
2020/12/12 03:29:06;;;;;;;32.83;19.80;;;6.10;92.80;;;;;;5054499;28;20119;-75
2020/12/12 03:31:32;;;;;;;31.90;19.73;;;6.20;92.80;;;;;;5054603;28;20056;-75
2020/12/12 03:33:59;;;;;;;30.33;18.90;;;6.20;92.90;;;;;;5052934;28;20051;-75
2020/12/12 03:36:25;;;;;;;27.37;18.13;;;6.20;92.90;;;;;;5054469;28;20504;-75
2020/12/12 03:38:51;;;;;;;33.87;19.60;;;6.20;92.90;;;;;;5054475;28;20017;-75
2020/12/12 03:41:16;;;;;;;28.20;18.80;;;6.20;92.90;;;;;;5053127;28;20094;-75
2020/12/12 03:43:42;;;;;;;31.77;20.40;;;6.20;92.90;;;;;;5054322;28;20493;-75
2020/12/12 03:46:07;;;;;;;30.40;20.23;;;6.20;92.90;;;;;;5019888;28;20024;-74
2020/12/12 03:48:33;;;;;;;28.97;19.17;;;6.10;92.80;;;;;;5052860;28;20098;-75
2020/12/12 03:50:59;;;;;;;28.03;17.97;;;6.20;92.90;;;;;;5052908;28;20060;-75
2020/12/12 03:53:24;;;;;;;29.53;18.90;;;6.20;92.80;;;;;;5053997;28;20026;-75
2020/12/12 03:55:50;;;;;;;29.13;18.40;;;6.30;92.90;;;;;;5053885;28;20045;-75
2020/12/12 03:58:15;;;;;;;30.03;18.53;;;6.20;92.90;;;;;;5053970;28;20075;-74
2020/12/12 04:00:41;;;;;;;29.53;17.43;;;6.20;92.80;;;;;;5053908;28;20484;-74
2020/12/12 04:03:07;;;;;;;29.30;19.03;;;6.30;92.90;;;;;;5052189;28;20028;-75
2020/12/12 04:05:32;;;;;;;28.67;17.93;;;6.30;92.90;;;;;;5053558;28;20473;-74
2020/12/12 04:07:58;;;;;;;29.07;18.13;;;6.30;92.80;;;;;;5052416;28;20029;-74
2020/12/12 04:10:23;;;;;;;27.50;17.93;;;6.30;92.90;;;;;;5052405;28;20025;-75
2020/12/12 04:12:49;;;;;;;25.03;16.77;;;6.30;92.90;;;;;;5052708;28;20112;-75
2020/12/12 04:15:14;;;;;;;30.07;18.33;;;6.20;92.90;;;;;;5053662;28;20503;-75
2020/12/12 04:17:40;;;;;;;31.07;18.33;;;6.30;92.90;;;;;;5053790;28;20112;-75
2020/12/12 04:20:06;;;;;;;27.90;18.17;;;6.30;92.90;;;;;;5053561;28;20063;-75
2020/12/12 04:22:31;;;;;;;29.00;18.80;;;6.20;92.90;;;;;;5052538;28;20029;-74
2020/12/12 04:24:57;;;;;;;31.67;19.07;;;6.30;93.00;;;;;;5052245;28;20174;-75
2020/12/12 04:27:23;;;;;;;30.23;19.43;;;6.30;92.90;;;;;;5053647;28;20051;-75
2020/12/12 04:29:48;;;;;;;30.37;18.53;;;6.30;92.90;;;;;;5053425;28;20388;-75
2020/12/12 04:32:14;;;;;;;31.53;19.97;;;6.40;93.20;;;;;;5053439;28;20033;-75
2020/12/12 04:34:39;;;;;;;31.03;20.03;;;6.30;92.90;;;;;;5051917;28;20032;-75
2020/12/12 04:37:05;;;;;;;30.57;18.87;;;6.30;92.90;;;;;;5053117;28;20096;-75
2020/12/12 04:39:31;;;;;;;28.10;18.47;;;6.30;92.90;;;;;;5052426;28;20104;-74
2020/12/12 04:41:57;;;;;;;30.50;19.63;;;6.30;92.90;;;;;;5053386;28;20100;-74
2020/12/12 04:44:23;;;;;;;31.17;19.77;;;6.30;92.90;;;;;;5053177;28;20020;-82
2020/12/12 04:46:51;;;;;;;33.30;19.43;;;6.40;92.90;;;;;;5053378;28;20082;-82
2020/12/12 04:49:17;;;;;;;34.77;20.87;;;6.30;92.80;;;;;;5052026;28;20396;-83
2020/12/12 04:51:46;;;;;;;29.83;19.47;;;6.30;92.80;;;;;;5051963;28;20025;-83
2020/12/12 04:54:18;;;;;;;32.67;20.83;;;6.40;92.80;;;;;;5051929;28;20048;-82
2020/12/12 04:56:46;;;;;;;31.83;19.73;;;6.40;92.80;;;;;;5051955;28;20052;-82
2020/12/12 04:59:13;;;;;;;34.80;20.47;;;6.40;92.80;;;;;;5052036;28;20384;-83
2020/12/12 05:01:39;;;;;;;31.50;18.83;;;6.40;92.90;;;;;;5043714;28;20052;-82
2020/12/12 05:04:07;;;;;;;32.20;20.30;;;6.30;92.80;;;;;;5053237;28;20385;-82
2020/12/12 05:06:33;;;;;;;33.20;18.83;;;6.30;92.80;;;;;;5051522;28;20199;-82
2020/12/12 05:08:59;;;;;;;32.40;19.70;;;6.40;92.90;;;;;;5052963;28;20025;-83
2020/12/12 05:11:25;;;;;;;33.57;20.13;;;6.40;92.90;;;;;;5068568;28;20504;-82
2020/12/12 05:13:52;;;;;;;32.17;20.07;;;6.40;92.90;;;;;;5051986;28;20029;-82
2020/12/12 05:16:19;;;;;;;31.93;19.17;;;6.30;92.90;;;;;;5068400;28;20032;-83
2020/12/12 05:18:45;;;;;;;32.40;19.33;;;6.40;92.90;;;;;;5068562;28;20103;-83
2020/12/12 05:21:11;;;;;;;33.80;20.83;;;6.40;92.90;;;;;;5053001;28;20468;-83
2020/12/12 05:23:38;;;;;;;31.60;19.67;;;6.40;92.90;;;;;;5035165;28;20021;-83
2020/12/12 05:26:04;;;;;;;31.93;18.73;;;6.40;92.90;;;;;;5051630;28;20032;-83
2020/12/12 05:28:29;;;;;;;34.70;18.60;;;6.40;92.90;;;;;;5051698;28;20029;-83
2020/12/12 05:30:55;;;;;;;31.67;19.30;;;6.40;93.00;;;;;;5068505;28;20420;-83
2020/12/12 05:33:23;;;;;;;30.23;18.57;;;6.40;93.20;;;;;;5051489;28;20116;-83
2020/12/12 05:35:49;;;;;;;28.67;18.37;;;6.40;93.00;;;;;;5052637;28;20021;-82
2020/12/12 05:38:15;;;;;;;30.73;17.83;;;6.50;93.00;;;;;;5051838;28;20021;-82
2020/12/12 05:40:43;;;;;;;32.17;19.03;;;6.50;93.00;;;;;;5051382;28;20128;-83
2020/12/12 05:43:10;;;;;;;27.53;17.63;;;6.50;93.00;;;;;;5052779;28;20037;-83
2020/12/12 05:45:38;;;;;;;27.93;17.70;;;6.50;93.20;;;;;;5051686;28;20025;-82
2020/12/12 05:48:05;;;;;;;24.50;16.20;;;6.50;93.00;;;;;;5056850;28;20025;-82
2020/12/12 05:50:30;;;;;;;28.73;16.60;;;6.50;93.00;;;;;;5054788;28;20387;-83
2020/12/12 05:52:56;;;;;;;30.03;17.67;;;6.50;93.00;;;;;;5054157;28;20037;-82
2020/12/12 05:55:29;;;;;;;26.43;16.87;;;6.50;93.00;;;;;;5054919;28;20275;-82
2020/12/12 05:57:56;;;;;;;26.60;16.43;;;6.50;93.00;;;;;;5055086;28;20071;-82
2020/12/12 06:00:23;;;;;;;28.70;16.30;;;6.50;93.00;;;;;;5056170;28;20543;-82
2020/12/12 06:02:55;;;;;;;29.73;17.20;;;6.50;93.00;;;;;;5054697;28;20052;-82
2020/12/12 06:05:32;;;;;;;29.73;17.00;;;6.50;93.00;;;;;;5056564;28;20380;-82
2020/12/12 06:08:01;;;;;;;27.57;16.50;;;6.50;93.00;;;;;;5056167;28;20025;-82
2020/12/12 06:10:29;;;;;;;31.67;16.50;;;6.60;93.00;;;;;;5056116;28;20435;-83
2020/12/12 06:13:18;;;;;;;29.17;16.77;;;6.50;93.00;;;;;;5056026;28;20469;-83
2020/12/12 06:15:50;;;;;;;28.00;16.83;;;6.60;93.10;;;;;;5056195;28;20021;-83
2020/12/12 06:18:34;;;;;;;26.00;15.50;;;6.60;93.00;;;;;;5054699;28;20032;-83
2020/12/12 06:21:06;;;;;;;25.70;15.88;;;6.70;93.00;;;;;;5054610;28;20395;-83
2020/12/12 06:23:37;;;;;;;27.53;16.30;;;6.60;93.00;;;;;;5055816;28;20025;-83
2020/12/12 06:26:03;;;;;;;24.53;15.37;;;6.60;93.00;;;;;;5054784;28;20028;-83
2020/12/12 06:28:31;;;;;;;27.13;15.87;;;6.60;93.00;;;;;;5054435;28;20075;-83
2020/12/12 06:30:57;;;;;;;26.63;15.80;;;6.70;93.10;;;;;;5055826;28;20029;-82
2020/12/12 06:33:23;;;;;;;26.03;15.90;;;6.70;93.00;;;;;;5038100;28;20571;-83
2020/12/12 06:35:49;;;;;;;24.47;15.37;;;6.70;93.00;;;;;;5038166;28;20021;-83
2020/12/12 06:38:25;;;;;;;25.20;13.80;;;6.70;93.00;;;;;;5038037;28;20435;-83
2020/12/12 06:40:58;;;;;;;24.93;14.67;;;6.70;93.00;;;;;;5054676;28;20020;-83
2020/12/12 06:43:35;;;;;;;24.60;14.83;;;6.70;93.00;;;;;;5055716;28;20029;-83
2020/12/12 06:46:05;;;;;;;24.23;14.87;;;6.80;93.00;;;;;;5054233;28;20412;-83
2020/12/12 06:48:33;;;;;;;22.97;13.47;;;6.80;93.00;;;;;;5054427;28;20044;-84
2020/12/12 06:51:00;;;;;;;23.13;13.93;;;6.70;93.00;;;;;;5054217;28;20021;-83
2020/12/12 06:53:27;;;;;;;20.03;12.67;;;6.80;93.00;;;;;;5055391;28;20115;-83
2020/12/12 06:56:16;;;;;;;22.20;13.50;;;6.80;93.00;;;;;;5055096;28;20041;-83
2020/12/12 06:58:45;;;;;;;23.13;13.47;;;6.80;93.10;;;;;;5053821;28;20071;-83
2020/12/12 07:01:27;;;;;;;24.10;13.77;;;6.80;93.10;;;;;;5054418;28;20066;-83
2020/12/12 07:04:01;;;;;;;22.87;14.03;;;6.80;93.10;;;;;;5054261;28;20024;-83
2020/12/12 07:06:29;;;;;;;23.63;13.60;;;6.70;93.10;;;;;;5055396;28;20067;-83
2020/12/12 07:09:05;;;;;;;20.87;13.77;;;6.80;93.10;;;;;;5055389;28;20021;-83
2020/12/12 07:11:31;;;;;;;26.00;14.67;;;6.80;93.10;;;;;;5053687;28;20039;-83
2020/12/12 07:13:58;;;;;;;28.63;14.77;;;6.70;93.00;;;;;;5053724;28;20362;-83
2020/12/12 07:16:25;;;;;;;22.93;14.60;;;6.80;93.10;;;;;;5053793;28;20372;-83
2020/12/12 07:18:51;;;;;;;29.57;14.80;;;6.80;93.10;;;;;;5055458;28;20100;-82
2020/12/12 07:21:18;;;;;;;25.37;14.60;;;6.80;93.10;;;;;;5054376;28;20464;-83
2020/12/12 07:23:44;;;;;;;28.63;14.90;;;6.80;93.10;;;;;;5054975;28;20066;-82
2020/12/12 07:26:10;;;;;;;33.17;14.93;;;6.80;93.10;;;;;;5053892;28;20033;-83
2020/12/12 07:28:36;;;;;;;28.93;14.43;;;6.80;93.20;;;;;;5056037;28;20039;-83
2020/12/12 07:31:02;;;;;;;28.03;14.47;;;6.80;93.20;;;;;;5053888;28;20025;-82
2020/12/12 07:33:29;;;;;;;29.10;15.10;;;6.80;93.20;;;;;;5055611;28;20036;-83
2020/12/12 07:35:55;;;;;;;33.10;16.07;;;6.80;93.20;;;;;;5054643;28;20030;-82
2020/12/12 07:38:21;;;;;;;36.53;16.17;;;6.80;93.20;;;;;;5055404;28;20472;-82
2020/12/12 07:40:47;;;;;;;34.77;15.80;;;6.90;93.20;;;;;;5038278;28;20028;-82
2020/12/12 07:43:12;;;;;;;30.67;15.03;;;6.80;93.20;;;;;;5055342;28;20094;-82
2020/12/12 07:48:09;;;;;;;40.80;16.63;;;6.80;93.20;;;;;;5056898;28;20033;-82
2020/12/12 07:50:36;;;;;;;39.77;15.17;;;6.80;93.30;;;;;;5038621;28;20478;-82
2020/12/12 07:53:13;;;;;;;45.23;15.73;;;6.80;93.30;;;;;;5055383;28;20021;-74
2020/12/12 07:55:43;;;;;;;51.27;17.03;;;6.80;93.30;;;;;;5054044;28;20519;-74
2020/12/12 07:58:37;;;;;;;40.47;16.57;;;6.80;93.30;;;;;;5054674;28;20027;-75
2020/12/12 08:01:05;;;;;;;36.80;14.98;;;6.90;93.40;;;;;;5065022;28;20032;-74
2020/12/12 08:03:32;;;;;;;38.20;16.50;;;6.90;93.30;;;;;;5064327;28;20431;-74
2020/12/12 08:06:05;;;;;;;40.27;15.93;;;6.90;93.30;;;;;;5066813;28;20025;-75
2020/12/12 08:08:31;;;;;;;37.60;16.60;;;6.80;93.30;;;;;;5067029;28;20024;-75
2020/12/12 08:10:59;;;;;;;39.10;16.30;;;6.80;93.30;;;;;;5070376;28;20024;-75
2020/12/12 08:13:26;;;;;;;35.10;16.13;;;6.90;93.30;;;;;;5073740;28;20035;-75
2020/12/12 08:16:13;;;;;;;34.80;16.70;;;6.80;93.40;;;;;;5073938;28;20020;-74
2020/12/12 08:18:39;;;;;;;43.90;14.97;;;6.90;93.40;;;;;;5058885;28;20025;-73
2020/12/12 08:21:19;;;;;;;55.03;16.93;;;6.90;93.40;;;;;;5060334;28;20154;-73
2020/12/12 08:23:46;;;;;;;39.50;15.77;;;7.00;93.40;;;;;;5061433;28;20396;-73
2020/12/12 08:26:16;;;;;;;70.33;17.73;;;6.90;93.50;;;;;;5053875;28;20025;-73
2020/12/12 08:28:43;;;;;;;42.53;16.97;;;6.90;93.30;;;;;;5053476;28;20032;-73
2020/12/12 08:31:21;;;;;;;49.80;18.10;;;6.90;93.40;;;;;;5053292;28;20461;-73
2020/12/12 08:33:54;;;;;;;68.73;17.90;;;7.00;93.40;;;;;;5055546;28;20046;-73
2020/12/12 08:36:23;;;;;;;43.63;17.03;;;7.00;93.70;;;;;;5053288;28;20025;-74
2020/12/12 08:38:55;;;;;;;55.63;17.50;;;7.00;93.40;;;;;;5053205;28;20057;-74
2020/12/12 08:41:31;;;;;;;38.70;17.00;;;7.10;93.40;;;;;;5053267;28;20017;-74
2020/12/12 08:43:57;;;;;;;39.93;16.77;;;7.00;93.40;;;;;;5053190;28;20017;-74
2020/12/12 08:46:23;;;;;;;65.27;17.27;;;7.10;93.50;;;;;;5053112;28;20048;-73
2020/12/12 08:48:50;;;;;;;52.60;17.90;;;7.10;93.50;;;;;;5052816;28;20467;-73
2020/12/12 08:51:26;;;;;;;67.00;18.30;;;7.10;93.40;;;;;;5053144;28;20047;-74
2020/12/12 08:53:53;;;;;;;68.07;19.20;;;7.10;93.40;;;;;;5052855;28;20106;-74
2020/12/12 08:56:21;;;;;;;41.83;17.60;;;7.10;93.40;;;;;;5052894;28;20029;-73
2020/12/12 08:59:06;;;;;;;60.13;18.63;;;7.20;93.50;;;;;;5051859;28;20025;-74
2020/12/12 09:01:33;;;;;;;47.20;18.07;;;7.20;93.50;;;;;;5051823;28;20154;-74
2020/12/12 09:04:04;;;;;;;59.30;18.67;;;7.20;93.40;;;;;;5053123;28;20021;-74
2020/12/12 09:06:54;;;;;;;44.53;19.43;;;7.20;93.40;;;;;;5053233;28;20025;-74
2020/12/12 09:09:26;;;;;;;74.07;19.93;;;7.20;93.40;;;;;;5052748;28;20041;-74
2020/12/12 09:12:00;;;;;;;51.40;19.97;;;7.20;93.50;;;;;;5063903;28;20031;-73
2020/12/12 09:14:28;;;;;;;55.97;19.20;;;7.30;93.50;;;;;;5071880;28;20024;-74
2020/12/12 09:16:56;;;;;;;49.50;20.70;;;7.40;93.50;;;;;;5072863;28;20028;-75
2020/12/12 09:19:23;;;;;;;47.57;19.33;;;7.30;93.40;;;;;;5073133;28;20043;-75
2020/12/12 09:21:49;;;;;;;63.47;19.30;;;7.30;93.50;;;;;;5072936;28;20124;-75
2020/12/12 09:24:15;;;;;;;49.53;20.97;;;7.40;93.50;;;;;;5077003;28;20490;-74
2020/12/12 09:26:42;;;;;;;51.83;21.30;;;7.30;93.50;;;;;;5075883;28;20032;-75
2020/12/12 09:29:08;;;;;;;45.43;19.80;;;7.40;93.50;;;;;;5066132;28;20492;-74
2020/12/12 09:31:34;;;;;;;54.83;20.93;;;7.50;93.60;;;;;;5055230;28;20040;-75
2020/12/12 09:34:00;;;;;;;52.30;20.33;;;7.50;93.60;;;;;;5056462;28;20029;-74
2020/12/12 09:36:25;;;;;;;44.50;19.27;;;7.50;93.60;;;;;;5056752;28;20029;-74
2020/12/12 09:38:51;;;;;;;43.50;20.20;;;7.60;93.60;;;;;;5056921;28;20037;-74
2020/12/12 09:41:17;;;;;;;45.90;20.23;;;7.60;93.60;;;;;;5055047;28;20032;-74
2020/12/12 09:43:43;;;;;;;43.97;19.20;;;7.60;93.50;;;;;;5055407;28;20029;-74
2020/12/12 09:46:09;;;;;;;43.13;19.97;;;7.60;93.50;;;;;;5038527;28;20029;-74
2020/12/12 09:48:36;;;;;;;48.00;20.07;;;7.60;93.50;;;;;;5056525;28;20032;-75
2020/12/12 09:51:03;;;;;;;42.67;19.43;;;7.60;93.50;;;;;;5038229;28;20100;-74
2020/12/12 09:53:28;;;;;;;39.60;19.13;;;7.60;93.50;;;;;;5056506;28;20643;-74
2020/12/12 09:55:56;;;;;;;46.90;19.53;;;7.70;93.50;;;;;;5038494;28;20378;-74
2020/12/12 09:58:22;;;;;;;51.80;19.80;;;7.80;93.50;;;;;;5054877;28;20056;-75
2020/12/12 10:00:48;;;;;;;43.30;19.33;;;7.70;93.50;;;;;;5055138;28;20389;-74
2020/12/12 10:03:13;;;;;;;43.73;19.70;;;7.80;93.50;;;;;;5056184;28;20033;-75
2020/12/12 10:05:39;;;;;;;42.13;18.40;;;7.80;93.40;;;;;;5037972;28;20029;-75
2020/12/12 10:08:05;;;;;;;44.87;19.83;;;7.80;93.40;;;;;;5038205;28;20074;-74
2020/12/12 10:10:31;;;;;;;42.77;19.53;;;7.80;93.40;;;;;;5055225;28;20425;-74
2020/12/12 10:12:57;;;;;;;44.93;19.93;;;7.90;93.40;;;;;;5070081;28;20029;-75
2020/12/12 10:15:24;;;;;;;40.33;18.73;;;7.90;93.50;;;;;;5074862;28;20464;-74
2020/12/12 10:17:51;;;;;;;48.03;19.33;;;7.90;93.40;;;;;;5074763;28;20021;-75
2020/12/12 10:20:17;;;;;;;40.37;18.57;;;7.90;93.40;;;;;;5074505;28;20495;-75
2020/12/12 10:22:44;;;;;;;48.37;20.17;;;7.90;93.40;;;;;;5058228;28;20041;-75
2020/12/12 10:25:10;;;;;;;52.17;19.73;;;7.90;93.40;;;;;;5075787;28;20104;-75
2020/12/12 10:27:37;;;;;;;47.23;18.83;;;7.90;93.40;;;;;;5075689;28;20158;-74
2020/12/12 10:30:08;;;;;;;53.70;20.83;;;8.00;93.50;;;;;;5057862;28;20115;-74
2020/12/12 10:32:33;;;;;;;59.87;20.50;;;8.00;93.50;;;;;;5074173;28;20119;-74
2020/12/12 10:34:59;;;;;;;48.73;20.10;;;8.00;93.50;;;;;;5073448;28;20125;-75
2020/12/12 10:37:25;;;;;;;50.37;20.50;;;8.10;93.50;;;;;;5074312;28;20123;-75
2020/12/12 10:40:11;;;;;;;54.20;20.27;;;8.10;93.50;;;;;;5074356;28;20028;-74
2020/12/12 10:42:37;;;;;;;46.60;19.20;;;8.10;93.50;;;;;;5060220;28;20036;-75
2020/12/12 10:45:05;;;;;;;50.30;21.37;;;8.00;93.50;;;;;;5040874;28;20116;-75
2020/12/12 10:47:30;;;;;;;43.43;18.77;;;8.10;93.50;;;;;;5075253;28;20028;-75
2020/12/12 10:49:56;;;;;;;47.07;19.97;;;8.20;93.50;;;;;;5074995;28;20032;-75
2020/12/12 10:52:22;;;;;;;47.50;19.77;;;8.20;93.50;;;;;;5075111;28;20029;-75
2020/12/12 10:54:49;;;;;;;44.97;18.43;;;8.20;93.50;;;;;;5074538;28;20496;-75
2020/12/12 10:57:15;;;;;;;47.17;20.50;;;8.30;93.50;;;;;;5073889;28;20082;-74
2020/12/12 10:59:44;;;;;;;47.57;18.93;;;8.30;93.40;;;;;;5074046;28;20399;-75
2020/12/12 11:02:13;;;;;;;45.07;19.33;;;8.30;93.40;;;;;;5057509;28;20028;-75
2020/12/12 11:04:40;;;;;;;49.27;19.60;;;8.40;93.40;;;;;;5073771;28;20473;-75
2020/12/12 11:07:07;;;;;;;46.77;19.47;;;8.40;93.40;;;;;;5075056;28;20029;-75
2020/12/12 11:09:34;;;;;;;52.37;19.87;;;8.40;93.40;;;;;;5074795;28;20040;-74
2020/12/12 11:12:00;;;;;;;52.60;20.40;;;8.40;93.40;;;;;;5073547;28;20476;-74
2020/12/12 11:14:28;;;;;;;57.73;21.07;;;8.40;93.40;;;;;;5074659;28;20032;-75
2020/12/12 11:16:55;;;;;;;47.17;19.77;;;8.50;93.40;;;;;;5073496;28;20031;-74
2020/12/12 11:19:22;;;;;;;52.17;21.33;;;8.40;93.30;;;;;;5073365;28;20380;-75
2020/12/12 11:21:48;;;;;;;53.03;22.50;;;8.40;93.30;;;;;;5074651;28;20028;-74
2020/12/12 11:24:13;;;;;;;47.90;20.00;;;8.50;93.40;;;;;;5073496;28;20032;-74
2020/12/12 11:26:39;;;;;;;49.03;20.70;;;8.40;93.30;;;;;;5073396;28;20082;-75
2020/12/12 11:29:05;;;;;;;55.50;20.53;;;8.50;93.30;;;;;;5055734;28;20082;-75
2020/12/12 11:31:30;;;;;;;49.43;21.33;;;8.50;93.30;;;;;;5048639;28;20029;-74
2020/12/12 11:34:12;;;;;;;48.20;20.30;;;8.50;93.40;;;;;;5039781;28;20044;-75
2020/12/12 11:36:53;;;;;;;45.60;19.07;;;8.50;93.30;;;;;;5073230;28;20379;-75
2020/12/12 11:47:06;;;;;;;48.73;20.63;;;8.70;93.30;;;;;;5074172;28;20033;-73
2020/12/12 11:49:31;;;;;;;44.73;20.40;;;8.70;93.30;;;;;;5072817;28;20422;-74
2020/12/12 11:51:57;;;;;;;43.37;19.83;;;8.80;93.20;;;;;;5065358;28;20039;-73
2020/12/12 11:54:23;;;;;;;46.23;20.60;;;8.70;93.20;;;;;;5060680;28;20485;-73
2020/12/12 11:56:48;;;;;;;48.40;20.13;;;8.70;93.20;;;;;;5047957;28;20025;-73
2020/12/12 11:59:15;;;;;;;40.33;20.50;;;8.80;93.20;;;;;;5050876;28;20341;-74
2020/12/12 12:01:41;;;;;;;45.47;20.17;;;8.80;93.10;;;;;;5051633;28;20479;-74
2020/12/12 12:04:07;;;;;;;42.33;19.73;;;8.80;93.10;;;;;;5060852;28;20051;-74
2020/12/12 12:06:33;;;;;;;39.10;18.33;;;8.80;93.10;;;;;;5058886;28;20032;-74
2020/12/12 12:11:37;;;;;;;36.63;19.47;;;8.90;93.10;;;;;;5071439;28;20480;-73
2020/12/12 12:14:07;;;;;;;33.83;17.10;;;8.90;93.10;;;;;;5054498;28;20065;-75
2020/12/12 12:16:38;;;;;;;40.37;20.13;;;9.00;93.10;;;;;;5035233;28;20021;-74
2020/12/12 12:19:09;;;;;;;38.43;18.77;;;8.90;93.00;;;;;;5051507;28;20380;-74
2020/12/12 12:21:36;;;;;;;41.83;19.13;;;9.10;93.10;;;;;;5053399;28;20025;-74
2020/12/12 12:24:03;;;;;;;38.83;18.63;;;8.90;93.10;;;;;;5035750;28;20067;-74
2020/12/12 12:26:30;;;;;;;43.90;19.87;;;9.00;93.00;;;;;;5052113;28;20029;-74
2020/12/12 12:28:56;;;;;;;46.73;18.80;;;9.00;93.10;;;;;;5051764;28;20372;-75
2020/12/12 12:31:22;;;;;;;47.50;20.27;;;9.00;93.10;;;;;;5052311;28;20044;-74
2020/12/12 12:33:48;;;;;;;41.47;19.40;;;9.00;93.10;;;;;;5035301;28;20029;-75
2020/12/12 12:36:16;;;;;;;45.50;21.00;;;9.00;93.10;;;;;;5052025;28;20025;-75
2020/12/12 12:38:41;;;;;;;47.30;21.20;;;9.10;93.20;;;;;;5053182;28;20028;-75
2020/12/12 12:41:07;;;;;;;48.77;21.77;;;9.00;93.10;;;;;;5035259;28;20021;-74
2020/12/12 12:43:32;;;;;;;52.37;21.70;;;9.20;93.20;;;;;;5035230;28;20029;-75
2020/12/12 12:45:58;;;;;;;54.57;22.40;;;9.00;93.10;;;;;;5052129;28;20040;-75
2020/12/12 12:48:24;;;;;;;60.47;22.70;;;9.00;93.10;;;;;;5052048;28;20029;-76
2020/12/12 12:50:49;;;;;;;59.83;23.43;;;8.90;93.10;;;;;;5035355;28;20548;-76